createdAt,value
2017-08-02T00:00:51.241Z,23.73
2017-08-02T00:03:31.418Z,23.71
2017-08-02T00:06:06.942Z,23.70
2017-08-02T00:08:42.985Z,23.68
2017-08-02T00:11:14.291Z,23.67
2017-08-02T00:13:45.711Z,23.61
2017-08-02T00:16:17.530Z,23.56
2017-08-02T00:18:48.605Z,23.58
2017-08-02T00:21:20.294Z,23.61
2017-08-02T00:23:51.376Z,23.53
2017-08-02T00:26:22.422Z,23.43
2017-08-02T00:28:53.947Z,23.36
2017-08-02T00:31:25.011Z,23.31
2017-08-02T00:33:56.023Z,23.28
2017-08-02T00:36:27.570Z,23.24
2017-08-02T00:38:58.623Z,23.25
2017-08-02T00:41:29.826Z,23.23
2017-08-02T00:44:01.310Z,23.14
2017-08-02T00:46:32.412Z,23.10
2017-08-02T00:49:03.482Z,23.17
2017-08-02T00:51:35.303Z,23.02
2017-08-02T00:54:07.609Z,22.98
2017-08-02T00:56:39.110Z,22.94
2017-08-02T00:59:11.079Z,22.98
2017-08-02T01:01:44.671Z,22.92
2017-08-02T01:04:16.183Z,22.83
2017-08-02T01:06:47.436Z,22.76
2017-08-02T01:09:18.882Z,22.85
2017-08-02T01:11:50.620Z,22.75
2017-08-02T01:14:24.546Z,22.67
2017-08-02T01:17:00.534Z,22.68
2017-08-02T01:19:32.878Z,22.71
2017-08-02T01:22:07.372Z,22.71
2017-08-02T01:24:39.509Z,22.67
2017-08-02T01:27:12.269Z,22.58
2017-08-02T01:29:46.445Z,22.54
2017-08-02T01:32:21.445Z,22.55
2017-08-02T01:34:53.818Z,22.55
2017-08-02T01:37:27.412Z,22.56
2017-08-02T01:40:07.801Z,22.63
2017-08-02T01:42:43.351Z,22.70
2017-08-02T01:45:16.253Z,22.74
2017-08-02T01:47:49.121Z,22.86
2017-08-02T01:50:21.831Z,22.93
2017-08-02T01:52:55.024Z,23.01
2017-08-02T01:55:26.980Z,23.04
2017-08-02T01:57:59.195Z,23.05
2017-08-02T02:00:32.521Z,23.07
2017-08-02T02:03:07.053Z,23.10
2017-08-02T02:05:40.218Z,23.11
2017-08-02T02:08:11.792Z,23.05
2017-08-02T02:10:43.427Z,23.05
2017-08-02T02:16:12.241Z,23.02
2017-08-02T02:18:45.715Z,23.02
2017-08-02T02:21:17.423Z,22.91
2017-08-02T02:23:48.791Z,22.85
2017-08-02T02:26:19.888Z,22.68
2017-08-02T02:28:51.952Z,22.68
2017-08-02T02:31:23.073Z,22.62
2017-08-02T02:33:54.104Z,22.57
2017-08-02T02:36:25.147Z,22.49
2017-08-02T02:38:56.469Z,22.43
2017-08-02T02:41:27.538Z,22.50
2017-08-02T02:43:58.574Z,22.48
2017-08-02T02:46:30.181Z,22.51
2017-08-02T02:49:01.269Z,22.48
2017-08-02T02:51:32.328Z,22.44
2017-08-02T02:54:06.860Z,22.44
2017-08-02T02:56:38.009Z,22.45
2017-08-02T02:59:09.073Z,22.39
2017-08-02T03:01:40.124Z,22.39
2017-08-02T03:04:11.233Z,22.34
2017-08-02T03:06:42.271Z,22.28
2017-08-02T03:09:13.664Z,22.26
2017-08-02T03:11:44.862Z,22.28
2017-08-02T03:14:15.907Z,22.26
2017-08-02T03:16:47.045Z,22.23
2017-08-02T03:19:18.133Z,22.22
2017-08-02T03:21:49.215Z,22.17
2017-08-02T03:24:20.579Z,22.17
2017-08-02T03:26:51.650Z,22.21
2017-08-02T03:29:22.765Z,22.17
2017-08-02T03:31:54.118Z,22.18
2017-08-02T03:34:25.176Z,22.25
2017-08-02T03:36:56.770Z,22.28
2017-08-02T03:39:27.800Z,22.35
2017-08-02T03:41:58.854Z,22.35
2017-08-02T03:44:29.895Z,22.30
2017-08-02T03:47:00.972Z,22.28
2017-08-02T03:49:32.293Z,22.25
2017-08-02T03:52:04.178Z,22.23
2017-08-02T03:54:35.217Z,22.16
2017-08-02T03:57:06.274Z,22.14
2017-08-02T03:59:37.591Z,22.15
2017-08-02T04:02:08.680Z,22.18
2017-08-02T04:04:39.698Z,22.21
2017-08-02T04:07:11.039Z,22.24
2017-08-02T04:09:42.122Z,22.23
2017-08-02T04:12:13.198Z,22.30
2017-08-02T04:14:44.594Z,22.37
2017-08-02T04:17:15.658Z,22.36
2017-08-02T04:19:46.727Z,22.34
2017-08-02T04:22:17.922Z,22.34
2017-08-02T04:24:50.271Z,22.39
2017-08-02T04:27:21.336Z,22.39
2017-08-02T04:29:52.370Z,22.41
2017-08-02T04:32:23.410Z,22.39
2017-08-02T04:34:54.473Z,22.39
2017-08-02T04:37:25.641Z,22.39
2017-08-02T04:39:57.002Z,22.41
2017-08-02T04:42:28.114Z,22.44
2017-08-02T04:44:59.283Z,22.46
2017-08-02T04:47:30.395Z,22.48
2017-08-02T04:50:02.903Z,22.48
2017-08-02T04:52:34.580Z,22.50
2017-08-02T04:55:05.825Z,22.49
2017-08-02T04:57:37.125Z,22.64
2017-08-02T05:00:08.236Z,22.72
2017-08-02T05:02:39.370Z,22.75
2017-08-02T05:05:11.193Z,22.81
2017-08-02T05:07:42.301Z,22.85
2017-08-02T05:10:13.594Z,22.82
2017-08-02T05:12:45.044Z,22.91
2017-08-02T05:15:16.281Z,23.08
2017-08-02T05:17:48.777Z,23.26
2017-08-02T05:20:19.819Z,23.37
2017-08-02T05:22:50.883Z,23.50
2017-08-02T05:25:22.249Z,23.58
2017-08-02T05:27:53.316Z,23.61
2017-08-02T05:30:24.357Z,23.61
2017-08-02T05:32:55.887Z,23.66
2017-08-02T05:35:27.168Z,23.72
2017-08-02T05:37:58.684Z,23.74
2017-08-02T05:40:30.194Z,23.80
2017-08-02T05:43:02.730Z,23.87
2017-08-02T05:45:34.291Z,23.84
2017-08-02T05:48:07.551Z,23.83
2017-08-02T05:53:35.956Z,23.82
2017-08-02T05:56:12.351Z,24.00
2017-08-02T05:58:45.180Z,24.34
2017-08-02T06:01:16.271Z,24.43
2017-08-02T06:03:47.699Z,24.48
2017-08-02T06:06:20.727Z,24.65
2017-08-02T06:08:52.297Z,24.82
2017-08-02T06:11:23.807Z,25.01
2017-08-02T06:13:55.946Z,25.17
2017-08-02T06:16:31.623Z,25.21
2017-08-02T06:19:11.395Z,25.36
2017-08-02T06:21:45.976Z,25.58
2017-08-02T06:24:19.195Z,25.57
2017-08-02T06:26:51.389Z,25.55
2017-08-02T06:29:26.516Z,25.42
2017-08-02T06:31:59.779Z,25.35
2017-08-02T06:34:33.591Z,25.12
2017-08-02T06:37:12.726Z,25.00
2017-08-02T06:39:45.513Z,24.96
2017-08-02T06:42:18.180Z,24.65
2017-08-02T06:44:52.692Z,24.77
2017-08-02T06:47:32.731Z,24.76
2017-08-02T06:50:14.188Z,24.81
2017-08-02T06:52:47.557Z,24.90
2017-08-02T06:55:22.985Z,24.84
2017-08-02T06:57:56.230Z,24.81
2017-08-02T07:00:29.729Z,24.97
2017-08-02T07:03:04.771Z,25.07
2017-08-02T07:05:38.646Z,25.17
2017-08-02T07:08:13.193Z,25.40
2017-08-02T07:10:47.420Z,25.47
2017-08-02T07:13:21.488Z,25.45
2017-08-02T07:15:55.547Z,25.59
2017-08-02T07:18:27.700Z,25.94
2017-08-02T07:21:03.808Z,26.31
2017-08-02T07:23:36.583Z,26.59
2017-08-02T07:26:14.747Z,26.84
2017-08-02T07:28:48.520Z,27.05
2017-08-02T07:31:22.796Z,27.13
2017-08-02T07:33:56.218Z,27.09
2017-08-02T07:36:30.472Z,27.15
2017-08-02T07:39:03.206Z,27.23
2017-08-02T07:41:34.716Z,27.25
2017-08-02T07:44:09.435Z,27.28
2017-08-02T07:46:45.869Z,27.41
2017-08-02T07:49:20.512Z,27.71
2017-08-02T07:51:52.355Z,27.99
2017-08-02T07:54:28.097Z,28.21
2017-08-02T07:57:06.118Z,28.43
2017-08-02T07:59:41.672Z,28.62
2017-08-02T08:02:19.171Z,29.01
2017-08-02T08:04:51.732Z,29.07
2017-08-02T08:07:26.349Z,28.89
2017-08-02T08:10:00.146Z,28.95
2017-08-02T08:12:32.524Z,28.97
2017-08-02T08:15:07.230Z,28.99
2017-08-02T08:17:41.583Z,29.08
2017-08-02T08:20:17.857Z,28.95
2017-08-02T08:22:50.128Z,28.55
2017-08-02T08:25:24.857Z,28.14
2017-08-02T08:28:04.694Z,28.03
2017-08-02T08:30:40.769Z,28.10
2017-08-02T08:33:19.288Z,27.98
2017-08-02T08:35:58.209Z,28.01
2017-08-02T08:38:32.891Z,27.78
2017-08-02T08:41:19.412Z,27.82
2017-08-02T08:43:56.808Z,27.41
2017-08-02T08:46:31.090Z,27.56
2017-08-02T08:49:11.510Z,27.60
2017-08-02T08:51:46.368Z,27.67
2017-08-02T08:57:47.685Z,27.50
2017-08-02T09:00:21.467Z,27.50
2017-08-02T09:02:54.765Z,27.48
2017-08-02T09:05:25.826Z,27.38
2017-08-02T09:07:56.907Z,27.47
2017-08-02T09:10:29.357Z,27.51
2017-08-02T09:13:00.515Z,27.20
2017-08-02T09:15:31.735Z,27.27
2017-08-02T09:18:03.434Z,27.24
2017-08-02T09:20:34.515Z,27.27
2017-08-02T09:23:06.260Z,27.28
2017-08-02T09:25:38.184Z,27.29
2017-08-02T09:28:09.674Z,27.13
2017-08-02T09:30:40.792Z,27.16
2017-08-02T09:33:11.870Z,27.23
2017-08-02T09:35:43.254Z,27.40
2017-08-02T09:38:14.315Z,27.53
2017-08-02T09:40:45.424Z,27.63
2017-08-02T09:43:16.864Z,27.63
2017-08-02T09:45:47.928Z,27.60
2017-08-02T09:48:19.016Z,27.72
2017-08-02T09:50:50.377Z,27.71
2017-08-02T09:53:21.430Z,27.90
2017-08-02T09:55:52.477Z,28.19
2017-08-02T09:58:26.320Z,28.39
2017-08-02T10:00:57.583Z,28.52
2017-08-02T10:03:29.168Z,28.65
2017-08-02T10:06:04.712Z,29.02
2017-08-02T10:08:35.888Z,29.19
2017-08-02T10:11:09.906Z,29.38
2017-08-02T10:13:43.468Z,29.04
2017-08-02T10:16:15.747Z,29.51
2017-08-02T10:18:48.630Z,29.73
2017-08-02T10:21:22.297Z,29.78
2017-08-02T10:23:53.770Z,29.56
2017-08-02T10:26:24.807Z,30.11
2017-08-02T10:28:56.180Z,30.47
2017-08-02T10:31:27.765Z,30.34
2017-08-02T10:34:04.250Z,30.74
2017-08-02T10:36:36.466Z,30.82
2017-08-02T10:39:08.806Z,30.91
2017-08-02T10:41:44.127Z,31.20
2017-08-02T10:44:18.357Z,31.69
2017-08-02T10:46:49.417Z,31.69
2017-08-02T10:49:21.101Z,31.93
2017-08-02T10:51:52.108Z,32.37
2017-08-02T10:54:23.184Z,32.55
2017-08-02T10:56:54.706Z,32.38
2017-08-02T10:59:25.747Z,32.38
2017-08-02T11:01:56.805Z,32.64
2017-08-02T11:04:28.220Z,32.34
2017-08-02T11:06:59.335Z,32.75
2017-08-02T11:09:30.746Z,32.55
2017-08-02T11:12:03.574Z,33.13
2017-08-02T11:14:34.802Z,32.66
2017-08-02T11:17:06.344Z,33.52
2017-08-02T11:19:37.467Z,34.19
2017-08-02T11:22:08.577Z,34.58
2017-08-02T11:24:40.293Z,34.57
2017-08-02T11:27:11.434Z,34.83
2017-08-02T11:29:42.832Z,35.11
2017-08-02T11:32:14.025Z,34.85
2017-08-02T11:34:45.244Z,34.64
2017-08-02T11:37:16.847Z,34.77
2017-08-02T11:39:48.225Z,35.01
2017-08-02T11:42:19.610Z,36.13
2017-08-02T11:44:50.741Z,35.71
2017-08-02T11:47:21.782Z,35.90
2017-08-02T11:49:53.333Z,35.69
2017-08-02T11:52:24.369Z,36.13
2017-08-02T11:54:55.665Z,36.55
2017-08-02T11:57:26.732Z,36.39
2017-08-02T11:59:58.466Z,35.92
2017-08-02T12:02:29.810Z,35.59
2017-08-02T12:05:00.868Z,36.68
2017-08-02T12:07:32.049Z,36.62
2017-08-02T12:10:04.092Z,37.03
2017-08-02T12:12:35.250Z,35.65
2017-08-02T12:15:06.649Z,36.33
2017-08-02T12:17:37.778Z,37.16
2017-08-02T12:20:09.137Z,37.63
2017-08-02T12:22:41.768Z,36.60
2017-08-02T12:25:12.992Z,37.38
2017-08-02T12:27:44.095Z,38.23
2017-08-02T12:30:15.252Z,39.29
2017-08-02T12:32:46.511Z,39.59
2017-08-02T12:35:18.068Z,39.17
2017-08-02T12:37:49.341Z,38.05
2017-08-02T12:43:16.549Z,37.87
2017-08-02T12:45:47.773Z,38.03
2017-08-02T12:48:19.597Z,37.13
2017-08-02T12:50:51.129Z,37.18
2017-08-02T12:53:22.253Z,37.39
2017-08-02T12:55:56.045Z,37.34
2017-08-02T12:58:27.411Z,37.38
2017-08-02T13:00:59.868Z,37.77
2017-08-02T13:03:31.167Z,37.62
2017-08-02T13:06:06.012Z,37.03
2017-08-02T13:08:37.449Z,36.63
2017-08-02T13:11:08.571Z,36.34
2017-08-02T13:13:41.020Z,35.30
2017-08-02T13:16:13.530Z,35.45
2017-08-02T13:18:44.649Z,35.33
2017-08-02T13:21:16.283Z,35.34
2017-08-02T13:23:47.544Z,35.55
2017-08-02T13:26:20.376Z,35.14
2017-08-02T13:28:51.730Z,34.85
2017-08-02T13:31:22.822Z,35.24
2017-08-02T13:33:53.912Z,35.33
2017-08-02T13:36:26.860Z,35.29
2017-08-02T13:38:58.016Z,35.00
2017-08-02T13:41:29.602Z,34.17
2017-08-02T13:44:03.551Z,34.00
2017-08-02T13:46:34.700Z,34.70
2017-08-02T13:49:06.149Z,35.57
2017-08-02T13:51:37.244Z,37.44
2017-08-02T13:54:11.102Z,39.36
2017-08-02T13:56:42.875Z,39.91
2017-08-02T13:59:16.166Z,38.89
2017-08-02T14:01:47.975Z,40.19
2017-08-02T14:04:19.817Z,41.30
2017-08-02T14:06:52.028Z,41.03
2017-08-02T14:09:23.803Z,40.95
2017-08-02T14:11:55.759Z,41.39
2017-08-02T14:14:29.439Z,42.84
2017-08-02T14:17:01.625Z,44.01
2017-08-02T14:19:32.774Z,42.46
2017-08-02T14:22:06.220Z,44.94
2017-08-02T14:24:37.443Z,47.14
2017-08-02T14:27:13.442Z,47.72
2017-08-02T14:29:48.120Z,47.61
2017-08-02T14:32:20.876Z,44.95
2017-08-02T14:34:52.168Z,43.95
2017-08-02T14:37:24.959Z,43.52
2017-08-02T14:39:56.570Z,45.07
2017-08-02T14:42:27.880Z,46.23
2017-08-02T14:45:00.025Z,47.32
2017-08-02T14:47:33.549Z,47.28
2017-08-02T14:50:10.275Z,48.53
2017-08-02T14:52:42.800Z,49.39
2017-08-02T14:58:18.844Z,47.74
2017-08-02T15:00:50.107Z,48.93
2017-08-02T15:03:21.506Z,50.01
2017-08-02T15:05:53.156Z,50.35
2017-08-02T15:08:24.436Z,51.33
2017-08-02T15:10:55.632Z,52.21
2017-08-02T15:13:26.851Z,53.44
2017-08-02T15:15:58.340Z,53.97
2017-08-02T15:18:29.608Z,52.20
2017-08-02T15:21:00.935Z,49.71
2017-08-02T15:23:32.282Z,47.92
2017-08-02T15:26:05.511Z,46.44
2017-08-02T15:28:36.555Z,46.21
2017-08-02T15:31:07.907Z,49.12
2017-08-02T15:33:39.003Z,51.06
2017-08-02T15:36:10.167Z,51.04
2017-08-02T15:38:41.552Z,48.94
2017-08-02T15:41:12.904Z,46.74
2017-08-02T15:43:43.983Z,44.84
2017-08-02T15:46:15.478Z,44.05
2017-08-02T15:48:47.186Z,42.93
2017-08-02T15:51:18.259Z,42.31
2017-08-02T15:54:05.949Z,43.72
2017-08-02T15:56:38.687Z,43.51
2017-08-02T15:59:12.264Z,42.34
2017-08-02T16:01:43.726Z,40.77
2017-08-02T16:04:15.735Z,40.78
2017-08-02T16:06:47.277Z,42.80
2017-08-02T16:09:18.862Z,44.20
2017-08-02T16:11:50.292Z,44.01
2017-08-02T16:14:21.374Z,42.06
2017-08-02T16:16:52.523Z,39.71
2017-08-02T16:19:23.976Z,40.17
2017-08-02T16:21:55.647Z,41.89
2017-08-02T16:24:27.069Z,42.78
2017-08-02T16:26:58.145Z,42.98
2017-08-02T16:29:29.253Z,42.76
2017-08-02T16:32:00.377Z,41.52
2017-08-02T16:34:32.733Z,40.24
2017-08-02T16:37:06.199Z,39.25
2017-08-02T16:39:38.075Z,38.49
2017-08-02T16:42:10.705Z,38.10
2017-08-02T16:44:41.772Z,38.25
2017-08-02T16:47:12.819Z,38.64
2017-08-02T16:49:44.164Z,38.97
2017-08-02T16:52:15.241Z,38.87
2017-08-02T16:54:46.383Z,38.03
2017-08-02T16:57:17.429Z,37.30
2017-08-02T16:59:48.501Z,36.52
2017-08-02T17:02:19.652Z,36.06
2017-08-02T17:04:51.013Z,35.75
2017-08-02T17:07:22.061Z,35.15
2017-08-02T17:09:53.111Z,34.20
2017-08-02T17:12:24.181Z,34.36
2017-08-02T17:14:55.247Z,34.32
2017-08-02T17:17:26.284Z,33.90
2017-08-02T17:19:57.651Z,33.73
2017-08-02T17:22:28.715Z,33.74
2017-08-02T17:24:59.827Z,33.54
2017-08-02T17:27:30.903Z,33.52
2017-08-02T17:30:03.875Z,33.19
2017-08-02T17:32:34.957Z,32.90
2017-08-02T17:35:06.323Z,32.58
2017-08-02T17:37:37.377Z,32.57
2017-08-02T17:40:10.008Z,32.45
2017-08-02T17:42:41.344Z,32.38
2017-08-02T17:45:12.596Z,32.31
2017-08-02T17:47:43.668Z,32.14
2017-08-02T17:50:15.268Z,32.08
2017-08-02T17:52:46.372Z,32.03
2017-08-02T17:55:17.447Z,31.94
2017-08-02T17:57:48.519Z,31.78
2017-08-02T18:00:20.605Z,31.63
2017-08-02T18:02:51.722Z,31.63
2017-08-02T18:05:23.467Z,30.95
2017-08-02T18:07:55.562Z,31.22
2017-08-02T18:10:26.738Z,31.21
2017-08-02T18:12:58.206Z,31.20
2017-08-02T18:15:29.369Z,31.02
2017-08-02T18:18:00.480Z,31.03
2017-08-02T18:20:32.052Z,30.92
2017-08-02T18:23:08.053Z,30.72
2017-08-02T18:25:40.791Z,30.39
2017-08-02T18:31:08.860Z,30.33
2017-08-02T18:33:40.411Z,30.29
2017-08-02T18:36:12.681Z,30.24
2017-08-02T18:38:43.851Z,30.15
2017-08-02T18:41:15.021Z,30.12
2017-08-02T18:43:46.447Z,30.00
2017-08-02T18:46:18.584Z,30.04
2017-08-02T18:48:49.936Z,30.01
2017-08-02T18:51:21.136Z,29.97
2017-08-02T18:53:52.193Z,29.88
2017-08-02T18:56:24.633Z,29.83
2017-08-02T18:58:56.699Z,29.81
2017-08-02T19:01:27.908Z,29.76
2017-08-02T19:03:59.524Z,29.73
2017-08-02T19:06:31.176Z,29.67
2017-08-02T19:09:02.830Z,29.64
2017-08-02T19:11:34.265Z,29.58
2017-08-02T19:14:10.590Z,29.52
2017-08-02T19:16:42.536Z,29.47
2017-08-02T19:19:13.849Z,29.39
2017-08-02T19:21:45.038Z,29.34
2017-08-02T19:24:17.452Z,29.23
2017-08-02T19:26:48.724Z,29.18
2017-08-02T19:29:19.982Z,29.11
2017-08-02T19:31:51.515Z,29.06
2017-08-02T19:34:22.779Z,29.05
2017-08-02T19:36:54.415Z,29.03
2017-08-02T19:39:25.707Z,28.99
2017-08-02T19:41:57.349Z,28.92
2017-08-02T19:44:28.875Z,28.92
2017-08-02T19:47:00.342Z,28.91
2017-08-02T19:49:31.795Z,28.88
2017-08-02T19:52:04.950Z,28.85
2017-08-02T19:54:36.384Z,28.82
2017-08-02T19:57:07.494Z,28.79
2017-08-02T19:59:38.573Z,28.78
2017-08-02T20:02:10.781Z,28.68
2017-08-02T20:04:41.864Z,28.66
2017-08-02T20:07:12.949Z,28.63
2017-08-02T20:09:44.318Z,28.61
2017-08-02T20:12:16.052Z,28.55
2017-08-02T20:14:47.143Z,28.53
2017-08-02T20:17:18.521Z,28.51
2017-08-02T20:19:49.642Z,28.46
2017-08-02T20:22:22.871Z,28.41
2017-08-02T20:24:54.232Z,28.34
2017-08-02T20:27:25.421Z,28.31
2017-08-02T20:29:56.994Z,28.30
2017-08-02T20:32:28.406Z,28.27
2017-08-02T20:35:00.203Z,28.26
2017-08-02T20:37:31.581Z,28.26
2017-08-02T20:40:08.299Z,28.25
2017-08-02T20:42:39.870Z,28.21
2017-08-02T20:45:10.923Z,28.14
2017-08-02T20:47:43.054Z,28.10
2017-08-02T20:50:15.216Z,28.08
2017-08-02T20:52:47.161Z,28.08
2017-08-02T20:55:18.597Z,28.06
2017-08-02T20:57:50.032Z,28.03
2017-08-02T21:00:21.172Z,28.05
2017-08-02T21:02:53.354Z,28.04
2017-08-02T21:05:24.543Z,28.00
2017-08-02T21:07:56.036Z,27.98
2017-08-02T21:10:27.420Z,27.95
2017-08-02T21:12:58.504Z,27.91
2017-08-02T21:15:29.556Z,27.91
2017-08-02T21:18:00.950Z,27.87
2017-08-02T21:20:32.014Z,27.83
2017-08-02T21:23:03.332Z,27.83
2017-08-02T21:25:34.377Z,27.81
2017-08-02T21:28:09.855Z,27.77
2017-08-02T21:30:41.055Z,27.73
2017-08-02T21:33:12.162Z,27.67
2017-08-02T21:35:43.559Z,27.63
2017-08-02T21:38:14.785Z,27.59
2017-08-02T21:40:46.119Z,27.58
2017-08-02T21:43:18.252Z,27.59
2017-08-02T21:45:49.368Z,27.55
2017-08-02T21:48:23.760Z,27.54
2017-08-02T21:50:54.831Z,27.55
2017-08-02T21:53:25.875Z,27.56
2017-08-02T21:55:57.229Z,27.53
2017-08-02T21:58:28.288Z,27.49
2017-08-02T22:00:59.542Z,27.47
2017-08-02T22:03:30.900Z,27.41
2017-08-02T22:08:38.617Z,27.39
2017-08-02T22:11:10.701Z,27.40
2017-08-02T22:13:42.027Z,27.37
2017-08-02T22:16:13.367Z,27.28
2017-08-02T22:18:44.469Z,27.25
2017-08-02T22:21:15.864Z,27.23
2017-08-02T22:23:47.069Z,27.23
2017-08-02T22:26:21.270Z,27.22
2017-08-02T22:28:52.632Z,27.16
2017-08-02T22:31:23.880Z,27.11
2017-08-02T22:33:55.134Z,27.11
2017-08-02T22:36:26.617Z,27.13
2017-08-02T22:38:57.715Z,27.08
2017-08-02T22:41:28.844Z,27.08
2017-08-02T22:44:00.209Z,27.10
2017-08-02T22:46:31.313Z,27.06
2017-08-02T22:49:02.971Z,26.97
2017-08-02T22:51:34.088Z,26.95
2017-08-02T22:54:12.165Z,26.84
2017-08-02T22:56:43.577Z,26.80
2017-08-02T22:59:14.657Z,26.77
2017-08-02T23:01:45.704Z,26.68
2017-08-02T23:04:17.147Z,26.60
2017-08-02T23:06:48.158Z,26.52
2017-08-02T23:09:19.205Z,26.53
2017-08-02T23:11:50.545Z,26.50
2017-08-02T23:14:22.265Z,26.51
2017-08-02T23:16:53.320Z,26.45
2017-08-02T23:19:24.654Z,26.27
2017-08-02T23:21:55.802Z,26.20
2017-08-02T23:24:27.132Z,26.24
2017-08-02T23:26:58.161Z,26.29
2017-08-02T23:29:29.220Z,26.30
2017-08-02T23:32:00.736Z,26.26
2017-08-02T23:34:31.820Z,26.26
2017-08-02T23:37:03.135Z,26.19
2017-08-02T23:39:34.545Z,26.16
2017-08-02T23:42:09.401Z,26.15
2017-08-02T23:44:40.896Z,26.10
2017-08-02T23:47:11.985Z,25.99
2017-08-02T23:49:43.065Z,25.96
2017-08-02T23:52:16.579Z,25.97
2017-08-02T23:54:47.879Z,25.94
2017-08-02T23:57:20.480Z,25.70
2017-08-02T23:59:51.693Z,25.73
